Time;durP1;ratioP1;P1;durP2;ratioP2;P2;SDS_P1;SDS_P2;PMS_P1;PMS_P2;Temp;Humidity;BMP_temperature;BMP_pressure;BME280_temperature;BME280_humidity;BME280_pressure;Samples;Min_cycle;Max_cycle;Signal;HPM_P1;HPM_P2
2022/08/10 00:00:25;;;;;;;6.40;3.47;;;;;;;19.47;76.30;100894.16;124162;1102;104162;-78
2022/08/10 00:03:08;;;;;;;7.43;3.80;;;;;;;19.46;76.55;100891.49;125199;1101;101866;-78
2022/08/10 00:05:40;;;;;;;8.43;3.50;;;;;;;19.46;76.62;100887.08;124293;1101;104205;-79
2022/08/10 00:08:11;;;;;;;8.67;3.60;;;;;;;19.48;76.08;100887.09;124226;1102;104265;-78
2022/08/10 00:10:43;;;;;;;6.23;3.37;;;;;;;19.43;76.26;100889.72;124244;1102;104159;-79
2022/08/10 00:13:14;;;;;;;7.43;3.27;;;;;;;19.39;75.84;100890.58;124206;1102;104030;-79
2022/08/10 00:15:46;;;;;;;8.73;3.53;;;;;;;19.35;76.12;100887.02;124214;1102;104169;-78
2022/08/10 00:18:17;;;;;;;6.30;3.53;;;;;;;19.32;76.21;100883.42;124192;1102;104195;-78
2022/08/10 00:20:49;;;;;;;9.83;3.50;;;;;;;19.30;75.28;100879.88;124856;1102;104223;-78
2022/08/10 00:23:20;;;;;;;6.50;3.23;;;;;;;19.26;75.93;100880.73;124089;1102;103264;-78
2022/08/10 00:25:51;;;;;;;6.53;3.03;;;;;;;19.25;75.32;100877.19;124031;1102;102294;-78
2022/08/10 00:28:23;;;;;;;9.77;3.57;;;;;;;19.24;75.39;100878.06;124096;1102;104318;-79
2022/08/10 00:30:55;;;;;;;12.10;3.30;;;;;;;19.25;75.24;100874.53;124462;1102;104159;-79
2022/08/10 00:33:26;;;;;;;10.03;3.33;;;;;;;19.25;75.97;100877.19;124792;1105;102807;-79
2022/08/10 00:35:57;;;;;;;11.20;3.73;;;;;;;19.26;75.17;100868.34;124829;1103;104160;-78
2022/08/10 00:38:29;;;;;;;8.33;3.20;;;;;;;19.25;75.70;100869.21;124845;1105;104335;-79
2022/08/10 00:41:00;;;;;;;6.03;3.27;;;;;;;19.25;74.95;100871.88;124851;1102;104245;-79
2022/08/10 00:43:32;;;;;;;10.67;3.40;;;;;;;19.21;74.73;100870.06;124109;1105;102496;-78
2022/08/10 00:46:04;;;;;;;6.63;3.47;;;;;;;19.19;75.41;100861.19;124098;1102;104650;-79
2022/08/10 00:48:35;;;;;;;7.43;3.50;;;;;;;19.15;74.44;100860.30;124155;1102;102763;-78
2022/08/10 00:51:07;;;;;;;6.30;3.50;;;;;;;19.15;74.85;100870.02;124054;1102;102981;-78
2022/08/10 00:53:38;;;;;;;9.00;3.80;;;;;;;19.14;74.47;100860.28;124122;1106;104380;-78
2022/08/10 00:56:10;;;;;;;7.17;3.13;;;;;;;19.14;74.41;100861.16;124920;1102;104145;-79
2022/08/10 00:58:42;;;;;;;6.07;3.40;;;;;;;19.14;75.24;100860.28;124258;1102;102810;-78
2022/08/10 01:01:14;;;;;;;8.40;3.10;;;;;;;19.16;74.99;100855.85;124127;1102;104230;-79
2022/08/10 01:03:45;;;;;;;7.63;3.67;;;;;;;19.19;74.54;100861.19;124207;1102;104201;-78
2022/08/10 01:06:29;;;;;;;6.27;3.33;;;;;;;19.17;74.27;100858.52;124242;1102;104335;-78
2022/08/10 01:09:09;;;;;;;10.13;3.47;;;;;;;19.16;74.79;100859.39;125024;1101;104194;-79
2022/08/10 01:11:51;;;;;;;6.97;3.10;;;;;;;19.14;74.62;100857.63;124194;1102;102662;-78
2022/08/10 01:14:34;;;;;;;7.93;3.50;;;;;;;19.15;75.12;100851.40;124257;1102;102988;-78
2022/08/10 01:17:11;;;;;;;6.33;3.50;;;;;;;19.15;74.54;100856.72;124230;1102;102743;-79
2022/08/10 01:19:56;;;;;;;6.20;3.17;;;;;;;19.13;75.15;100848.73;124217;1102;104169;-78
2022/08/10 01:22:52;;;;;;;9.10;3.27;;;;;;;19.13;75.01;100853.17;124142;1102;104242;-79
2022/08/10 01:25:48;;;;;;;10.63;3.00;;;;;;;19.11;74.82;100844.30;124215;1102;104334;-78
2022/08/10 01:28:31;;;;;;;5.17;3.00;;;;;;;19.09;74.03;100852.27;124258;1102;102781;-79
2022/08/10 01:31:04;;;;;;;7.40;3.37;;;;;;;19.10;74.37;100839.85;125002;1102;104172;-79
2022/08/10 01:33:41;;;;;;;8.98;3.22;;;;;;;19.11;74.55;100839.87;124216;1102;104239;-78
2022/08/10 01:36:18;;;;;;;8.30;3.30;;;;;;;19.13;74.91;100845.19;124964;1102;102769;-79
2022/08/10 01:38:51;;;;;;;6.40;3.23;;;;;;;19.14;74.34;100844.33;125017;1102;104198;-78
2022/08/10 01:41:31;;;;;;;7.03;3.25;;;;;;;19.11;74.49;100836.33;124158;1102;104272;-78
2022/08/10 01:44:08;;;;;;;6.97;2.93;;;;;;;19.13;74.40;100847.85;124255;1102;104182;-79
2022/08/10 01:46:42;;;;;;;6.70;3.07;;;;;;;19.10;74.09;100839.85;124290;1102;102884;-79
2022/08/10 01:49:15;;;;;;;8.43;3.03;;;;;;;19.09;74.05;100838.06;124978;1102;102186;-78
2022/08/10 01:51:51;;;;;;;7.10;3.20;;;;;;;19.09;74.58;100832.75;124227;1102;104226;-79
2022/08/10 01:54:26;;;;;;;6.70;2.77;;;;;;;19.06;73.94;100832.73;124185;1102;102967;-79
2022/08/10 01:56:59;;;;;;;6.30;2.93;;;;;;;19.03;74.07;100828.30;124910;1102;102822;-79
2022/08/10 01:59:35;;;;;;;3.90;3.25;;;;;;;19.03;74.58;100831.84;124961;1102;104236;-78
2022/08/10 02:02:10;;;;;;;7.43;3.10;;;;;;;19.02;73.75;100827.39;124913;1102;104300;-79
2022/08/10 02:04:46;;;;;;;4.17;3.10;;;;;;;19.03;73.97;100834.50;125005;1102;104165;-78
2022/08/10 02:07:20;;;;;;;6.30;3.20;;;;;;;19.02;74.19;100827.39;124971;1102;104256;-78
2022/08/10 02:09:56;;;;;;;4.27;3.07;;;;;;;19.00;73.99;100831.81;124804;1102;104418;-79
2022/08/10 02:12:31;;;;;;;5.73;2.90;;;;;;;19.00;74.17;100828.28;124201;1102;104220;-79
2022/08/10 02:15:06;;;;;;;6.50;3.00;;;;;;;19.00;74.22;100825.62;124210;1102;102798;-79
2022/08/10 02:17:40;;;;;;;5.17;2.80;;;;;;;18.96;73.69;100821.16;124292;1102;104248;-79
2022/08/10 02:20:15;;;;;;;7.97;3.20;;;;;;;18.97;74.27;100825.59;124255;1102;104418;-79
2022/08/10 02:22:49;;;;;;;4.43;3.07;;;;;;;18.95;73.99;100825.59;124203;1102;104248;-80
2022/08/10 02:25:22;;;;;;;7.63;3.60;;;;;;;18.93;74.07;100830.02;124249;1102;103576;-78
2022/08/10 02:27:55;;;;;;;9.15;3.12;;;;;;;18.93;73.83;100835.34;124999;1102;101800;-79
2022/08/10 02:30:28;;;;;;;5.90;3.50;;;;;;;18.97;73.69;100839.77;125002;1102;102788;-79
2022/08/10 02:33:01;;;;;;;5.45;3.15;;;;;;;18.97;73.39;100842.44;124719;1102;102158;-78
2022/08/10 02:35:35;;;;;;;9.37;3.27;;;;;;;18.96;73.63;100840.64;124098;1102;104223;-78
2022/08/10 02:38:06;;;;;;;;;;;;;;;18.97;73.08;100839.77;124282;1102;104240;-79
2022/08/10 02:40:42;;;;;;;6.10;3.10;;;;;;;18.99;74.12;100853.96;124214;1101;104073;-79
2022/08/10 02:43:21;;;;;;;6.87;3.10;;;;;;;18.98;73.74;100857.52;125023;1102;104172;-79
2022/08/10 02:46:00;;;;;;;5.57;3.10;;;;;;;18.98;73.67;100848.62;124217;1102;102858;-78
2022/08/10 02:48:39;;;;;;;5.80;3.00;;;;;;;18.99;73.89;100851.30;124195;1102;104163;-78
2022/08/10 02:51:16;;;;;;;5.37;3.00;;;;;;;18.98;73.84;100844.22;124241;1102;102767;-79
2022/08/10 02:53:52;;;;;;;5.23;3.30;;;;;;;18.96;73.67;100842.42;124205;1102;104232;-79
2022/08/10 02:56:26;;;;;;;7.73;3.30;;;;;;;18.95;73.38;100852.19;124221;1102;102874;-78
2022/08/10 02:59:02;;;;;;;6.70;3.20;;;;;;;18.93;74.10;100848.62;124192;1102;104192;-79
2022/08/10 03:01:38;;;;;;;5.30;3.10;;;;;;;18.91;73.38;100852.15;124204;1102;104648;-79
2022/08/10 03:04:16;;;;;;;4.90;3.27;;;;;;;18.90;73.93;100851.27;124261;1102;104245;-79
2022/08/10 03:06:54;;;;;;;5.07;3.33;;;;;;;18.92;73.93;100848.62;124228;1102;104191;-79
2022/08/10 03:09:29;;;;;;;6.80;3.20;;;;;;;18.94;73.96;100850.39;124982;1102;104207;-79
2022/08/10 03:12:04;;;;;;;6.53;3.30;;;;;;;18.93;73.17;100850.37;125606;1101;104303;-78
2022/08/10 03:14:37;;;;;;;7.27;3.20;;;;;;;18.92;73.62;100853.94;124221;1101;104208;-78
2022/08/10 03:17:10;;;;;;;9.10;3.13;;;;;;;18.89;73.63;100851.26;124127;1102;104307;-78
2022/08/10 03:19:43;;;;;;;6.50;3.20;;;;;;;18.89;73.67;100846.82;124226;1102;104148;-78
2022/08/10 03:22:15;;;;;;;7.35;3.15;;;;;;;18.87;73.47;100848.59;124287;1102;104216;-78
2022/08/10 03:24:48;;;;;;;4.53;2.97;;;;;;;18.86;73.39;100849.45;124220;1102;102814;-78
2022/08/10 03:27:21;;;;;;;4.40;2.83;;;;;;;18.85;73.41;100845.00;125573;1101;104169;-78
2022/08/10 03:29:54;;;;;;;6.23;3.20;;;;;;;18.84;73.37;100843.22;124202;1102;104267;-78
2022/08/10 03:32:29;;;;;;;10.00;3.30;;;;;;;18.84;73.39;100843.22;124095;1102;102819;-78
2022/08/10 03:35:01;;;;;;;4.10;2.80;;;;;;;18.84;73.81;100841.47;124153;1102;104165;-78
2022/08/10 03:37:32;;;;;;;4.47;2.87;;;;;;;18.84;73.02;100838.81;124148;1102;102972;-78
2022/08/10 03:40:09;;;;;;;8.90;3.10;;;;;;;18.86;73.36;100829.06;125132;1102;104172;-78
2022/08/10 03:42:40;;;;;;;;;;;;;;;18.85;73.22;100831.71;124994;1102;104166;-78
2022/08/10 03:45:12;;;;;;;3.97;2.70;;;;;;;18.84;73.12;100828.17;124977;1102;104060;-78
2022/08/10 03:47:45;;;;;;;5.63;2.90;;;;;;;18.86;73.37;100825.53;124250;1102;104214;-79
2022/08/10 03:50:18;;;;;;;5.83;2.80;;;;;;;18.88;73.40;100817.56;124278;1102;104166;-78
2022/08/10 03:52:50;;;;;;;5.55;3.10;;;;;;;18.88;73.19;100826.42;124236;1102;102812;-78
2022/08/10 03:55:22;;;;;;;8.13;3.13;;;;;;;18.88;73.07;100813.13;124248;1102;102778;-78
2022/08/10 03:57:53;;;;;;;5.77;2.70;;;;;;;18.91;72.87;100814.92;124181;1102;102110;-79
2022/08/10 04:00:27;;;;;;;5.77;2.93;;;;;;;18.94;72.86;100815.82;124294;1102;104223;-79
2022/08/10 04:03:01;;;;;;;4.27;2.93;;;;;;;18.94;73.02;100817.60;124216;1102;104163;-79
2022/08/10 04:05:33;;;;;;;4.97;2.77;;;;;;;18.95;73.34;100812.30;124174;1102;104242;-78
2022/08/10 04:08:05;;;;;;;5.23;3.20;;;;;;;18.86;72.98;100786.52;124267;1102;104366;-79
2022/08/10 04:10:37;;;;;;;5.10;2.90;;;;;;;18.95;73.02;100793.68;124226;1102;104236;-78
2022/08/10 04:13:08;;;;;;;5.50;3.07;;;;;;;18.96;72.77;100794.56;124284;1102;101884;-79
2022/08/10 04:15:40;;;;;;;3.83;2.80;;;;;;;18.95;72.16;100785.70;124296;1102;104181;-78
2022/08/10 04:18:11;;;;;;;4.33;2.87;;;;;;;18.96;72.86;100776.83;124179;1102;104109;-77
2022/08/10 04:20:45;;;;;;;5.73;3.00;;;;;;;18.98;72.89;100767.11;124299;1102;103235;-79
2022/08/10 04:23:23;;;;;;;5.30;2.73;;;;;;;18.96;72.32;100768.84;124356;1102;104169;-78
2022/08/10 04:25:55;;;;;;;6.67;3.10;;;;;;;18.98;72.79;100758.22;124381;1101;104166;-78
2022/08/10 04:28:28;;;;;;;4.97;2.73;;;;;;;18.99;72.55;100768.86;124305;1101;104217;-78
2022/08/10 04:31:01;;;;;;;4.40;2.53;;;;;;;19.01;72.47;100766.22;124406;1102;104241;-79
2022/08/10 04:33:35;;;;;;;5.72;2.85;;;;;;;19.01;72.17;100772.44;124337;1102;104261;-78
2022/08/10 04:36:09;;;;;;;4.07;2.60;;;;;;;19.00;72.11;100772.44;124811;1102;104261;-79
2022/08/10 04:38:43;;;;;;;4.23;2.80;;;;;;;18.99;72.05;100776.84;125086;1102;101764;-78
2022/08/10 04:41:14;;;;;;;2.97;2.50;;;;;;;19.02;71.80;100776.86;124194;1102;101962;-78
2022/08/10 04:43:46;;;;;;;4.43;3.10;;;;;;;19.07;72.07;100784.86;124290;1101;101969;-78
2022/08/10 04:46:18;;;;;;;3.03;2.70;;;;;;;19.10;71.48;100782.22;124300;1102;104248;-79
2022/08/10 04:48:49;;;;;;;3.80;2.55;;;;;;;19.13;71.42;100786.67;124213;1102;104309;-77
2022/08/10 04:51:20;;;;;;;4.37;2.77;;;;;;;19.14;72.14;100784.02;124234;1102;104166;-78
2022/08/10 04:53:53;;;;;;;5.73;2.83;;;;;;;19.17;71.85;100789.36;124211;1102;102062;-78
2022/08/10 04:56:24;;;;;;;4.93;2.70;;;;;;;19.21;71.39;100795.58;124204;1102;104166;-78
2022/08/10 04:58:56;;;;;;;5.57;2.90;;;;;;;19.22;71.64;100792.92;124186;1102;104162;-78
2022/08/10 05:01:27;;;;;;;4.63;2.87;;;;;;;19.24;70.75;100792.05;124061;1105;104278;-78
2022/08/10 05:03:59;;;;;;;4.47;2.60;;;;;;;19.26;71.14;100795.59;124097;1105;102254;-78
2022/08/10 05:06:30;;;;;;;8.17;3.37;;;;;;;19.26;70.98;100791.19;124046;1105;104268;-78
2022/08/10 05:09:02;;;;;;;5.00;2.70;;;;;;;19.27;70.50;100800.92;124020;1105;103037;-79
2022/08/10 05:11:33;;;;;;;4.87;2.73;;;;;;;19.29;71.06;100801.84;124094;1105;104153;-78
2022/08/10 05:14:05;;;;;;;3.47;2.80;;;;;;;19.29;70.41;100798.27;124039;1105;104745;-77
2022/08/10 05:16:37;;;;;;;8.67;3.40;;;;;;;19.31;70.56;100799.19;124059;1105;104217;-77
2022/08/10 05:19:08;;;;;;;4.37;2.83;;;;;;;19.31;70.87;100802.73;124090;1105;104169;-77
2022/08/10 05:21:40;;;;;;;7.07;3.00;;;;;;;19.34;70.79;100801.87;124227;1102;104258;-78
2022/08/10 05:24:12;;;;;;;4.50;2.90;;;;;;;19.37;70.95;100802.76;125008;1102;101777;-77
2022/08/10 05:26:55;;;;;;;5.83;2.60;;;;;;;19.39;70.14;100802.77;124244;1102;102120;-77
2022/08/10 05:30:05;;;;;;;5.27;2.83;;;;;;;19.38;70.36;100803.64;124276;1102;104166;-76
2022/08/10 05:32:41;;;;;;;6.97;3.10;;;;;;;19.40;70.42;100807.22;124300;1102;104300;-78
2022/08/10 05:35:17;;;;;;;4.27;2.77;;;;;;;19.40;70.14;100801.90;124913;1102;104162;-78
2022/08/10 05:37:50;;;;;;;5.53;3.08;;;;;;;19.43;69.78;100814.30;124205;1101;104207;-77
2022/08/10 05:40:23;;;;;;;6.07;3.27;;;;;;;19.45;70.00;100808.12;124237;1102;104232;-77
2022/08/10 05:42:54;;;;;;;;;;;;;;;19.44;68.51;100816.09;124297;1102;104235;-77
2022/08/10 05:45:39;;;;;;;3.77;2.53;;;;;;;19.43;69.62;100811.64;124266;1102;104169;-78
2022/08/10 05:48:11;;;;;;;7.03;2.90;;;;;;;19.45;69.60;100809.90;124156;1102;104057;-77
2022/08/10 05:50:46;;;;;;;7.47;3.00;;;;;;;19.48;69.51;100812.58;124225;1102;104172;-76
2022/08/10 05:53:20;;;;;;;6.20;2.90;;;;;;;19.46;69.44;100807.25;124090;1102;102263;-77
2022/08/10 05:55:54;;;;;;;6.47;2.97;;;;;;;19.48;68.60;100804.59;125647;1101;102283;-77
2022/08/10 05:58:25;;;;;;;4.55;2.80;;;;;;;19.49;69.34;100812.55;124329;1102;104166;-78
2022/08/10 06:01:02;;;;;;;6.53;2.90;;;;;;;19.52;68.67;100806.36;124224;1102;104166;-76
2022/08/10 06:06:32;;;;;;;5.30;2.60;;;;;;;19.56;68.63;100810.83;124232;1102;104245;-78
2022/08/10 06:09:07;;;;;;;9.77;2.97;;;;;;;19.59;68.46;100816.16;124294;1102;104182;-78
2022/08/10 06:11:39;;;;;;;4.57;2.93;;;;;;;19.58;68.51;100815.25;124220;1102;104153;-77
2022/08/10 06:17:23;;;;;;;9.07;2.90;;;;;;;19.65;68.13;100821.50;124289;1102;102987;-77
2022/08/10 06:19:55;;;;;;;3.97;2.90;;;;;;;19.66;67.52;100820.59;124695;1098;104331;-77
2022/08/10 06:22:31;;;;;;;5.50;2.73;;;;;;;19.72;68.16;100817.08;124820;1099;104270;-77
2022/08/10 06:25:43;;;;;;;8.03;3.10;;;;;;;19.78;67.73;100819.80;124972;1099;102906;-79
2022/08/10 06:28:32;;;;;;;6.17;3.10;;;;;;;19.83;68.06;100809.16;125087;1099;102220;-75
2022/08/10 06:31:35;;;;;;;9.13;3.20;;;;;;;19.89;67.36;100818.04;124929;1099;104169;-77
2022/08/10 06:34:15;;;;;;;9.77;3.43;;;;;;;19.92;67.96;100810.06;124917;1099;104246;-75
2022/08/10 06:37:17;;;;;;;6.60;2.83;;;;;;;19.92;67.81;100812.72;124862;1099;102194;-76
2022/08/10 06:39:54;;;;;;;4.33;2.80;;;;;;;19.96;67.54;100824.30;124884;1099;102583;-77
2022/08/10 06:42:34;;;;;;;5.60;3.20;;;;;;;19.98;66.93;100816.31;124442;1099;104277;-77
2022/08/10 06:45:16;;;;;;;8.67;3.23;;;;;;;20.03;67.69;100826.06;124682;1102;104352;-78
2022/08/10 06:47:59;;;;;;;7.13;3.50;;;;;;;20.07;66.43;100813.63;124444;1102;104807;-79
2022/08/10 06:50:48;;;;;;;4.57;2.97;;;;;;;20.08;66.66;100818.08;124466;1102;102091;-79
2022/08/10 06:53:31;;;;;;;4.97;2.90;;;;;;;20.16;66.50;100821.64;125037;1102;104241;-79
2022/08/10 06:56:30;;;;;;;8.30;3.30;;;;;;;20.22;66.19;100826.09;125018;1102;104341;-78
2022/08/10 06:59:12;;;;;;;6.60;3.10;;;;;;;20.33;66.11;100823.45;124612;1102;104156;-79
2022/08/10 07:02:00;;;;;;;5.62;2.90;;;;;;;20.43;66.88;100828.78;125079;1102;104331;-79
2022/08/10 07:04:58;;;;;;;8.73;3.93;;;;;;;20.51;65.32;100825.24;125091;1102;101847;-79
2022/08/10 07:07:59;;;;;;;2.77;2.50;;;;;;;20.60;65.42;100823.45;125033;1102;104399;-76
2022/08/10 07:11:17;;;;;;;8.50;3.00;;;;;;;20.71;65.76;100825.23;124506;1102;102869;-78
2022/08/10 07:16:50;;;;;;;5.23;2.80;;;;;;;20.96;65.79;100820.78;125035;1099;102780;-77
2022/08/10 07:19:28;;;;;;;5.77;2.90;;;;;;;21.04;64.29;100818.98;126094;1098;102306;-79
2022/08/10 07:22:04;;;;;;;5.73;2.90;;;;;;;21.15;64.03;100817.16;125687;1099;102120;-78
2022/08/10 07:24:39;;;;;;;4.30;2.80;;;;;;;21.32;64.21;100817.11;124996;1099;104072;-78
2022/08/10 07:27:22;;;;;;;6.63;3.20;;;;;;;21.39;63.82;100809.96;125039;1098;104156;-76
2022/08/10 07:30:06;;;;;;;4.73;2.83;;;;;;;;;;125182;1099;102672;-77
2022/08/10 07:32:45;;;;;;;4.70;2.80;;;;;;;21.67;63.33;100810.75;124959;1099;102587;-78
2022/08/10 07:35:36;;;;;;;8.07;3.37;;;;;;;21.76;63.46;100803.61;126197;1098;104230;-77
2022/08/10 07:38:18;;;;;;;6.37;2.97;;;;;;;21.86;61.94;100814.23;125054;1099;104444;-77
2022/08/10 07:40:54;;;;;;;4.43;2.90;;;;;;;21.96;61.82;100806.16;125000;1099;104320;-79
2022/08/10 07:43:43;;;;;;;9.07;2.80;;;;;;;22.09;62.00;100813.18;125620;1099;102117;-78
2022/08/10 07:46:34;;;;;;;6.10;2.90;;;;;;;22.32;61.45;100805.03;125687;1099;104176;-79
2022/08/10 07:49:17;;;;;;;7.23;2.60;;;;;;;22.46;60.56;100810.27;125635;1099;104245;-77
2022/08/10 07:51:58;;;;;;;4.17;2.70;;;;;;;22.71;61.02;100802.03;125645;1098;101884;-79
2022/08/10 07:54:43;;;;;;;4.80;2.90;;;;;;;22.90;60.11;100806.27;125674;1099;104912;-78
2022/08/10 07:57:46;;;;;;;3.90;2.72;;;;;;;23.08;59.57;100801.66;125083;1099;104172;-79
2022/08/10 08:00:29;;;;;;;4.47;2.83;;;;;;;23.29;59.36;100801.41;125100;1099;104086;-79
2022/08/10 08:03:09;;;;;;;6.20;2.60;;;;;;;23.47;57.10;100802.98;125708;1099;102191;-80
2022/08/10 08:05:52;;;;;;;4.87;2.77;;;;;;;23.60;57.61;100784.08;126134;1098;104057;-79
2022/08/10 08:08:30;;;;;;;5.97;2.80;;;;;;;23.76;56.96;100784.74;125090;1102;104431;-79
2022/08/10 08:11:13;;;;;;;5.80;2.93;;;;;;;23.86;57.00;100783.75;125579;1102;102947;-80
2022/08/10 08:14:03;;;;;;;4.50;3.00;;;;;;;23.89;55.97;100786.38;125036;1102;102319;-80
2022/08/10 08:16:55;;;;;;;5.33;3.00;;;;;;;23.88;56.92;100773.01;125020;1102;104239;-81
2022/08/10 08:19:29;;;;;;;3.93;2.67;;;;;;;23.81;56.69;100773.06;124397;1102;103722;-77
2022/08/10 08:22:08;;;;;;;5.40;2.70;;;;;;;23.79;55.42;100774.86;124345;1103;103506;-77
2022/08/10 08:24:49;;;;;;;4.70;2.90;;;;;;;23.85;56.07;100774.80;124992;1102;104373;-78
2022/08/10 08:27:27;;;;;;;4.73;2.70;;;;;;;24.02;56.07;100771.87;124938;1099;104210;-77
2022/08/10 08:30:18;;;;;;;8.40;2.77;;;;;;;24.12;54.92;100771.72;125283;1099;104110;-79
2022/08/10 08:33:22;;;;;;;4.93;2.80;;;;;;;24.24;54.94;100771.53;125650;1099;104332;-79
2022/08/10 08:36:04;;;;;;;4.83;2.73;;;;;;;24.28;54.45;100770.58;125018;1099;104182;-78
2022/08/10 08:38:53;;;;;;;5.90;3.10;;;;;;;24.38;54.73;100776.66;125164;1099;102315;-78
2022/08/10 08:41:52;;;;;;;3.70;3.00;;;;;;;24.57;55.07;100761.16;125127;1099;104217;-77
2022/08/10 08:44:43;;;;;;;4.87;3.10;;;;;;;24.69;54.25;100768.11;126584;1098;101979;-79
2022/08/10 08:48:10;;;;;;;5.65;2.87;;;;;;;24.85;52.68;100774.06;125660;1099;104150;-78
2022/08/10 08:51:11;;;;;;;5.87;2.90;;;;;;;24.95;53.38;100756.88;125731;1099;104233;-78
2022/08/10 08:54:01;;;;;;;6.53;3.10;;;;;;;24.98;52.44;100759.50;126573;1098;104060;-79
2022/08/10 08:56:51;;;;;;;8.77;3.40;;;;;;;25.01;52.23;100756.76;125746;1099;104236;-80
2022/08/10 08:59:41;;;;;;;5.00;2.90;;;;;;;24.90;51.49;100761.43;125816;1099;102254;-80
2022/08/10 09:02:42;;;;;;;7.97;2.90;;;;;;;24.95;51.69;100764.93;125682;1099;107765;-77
2022/08/10 09:05:47;;;;;;;5.85;3.15;;;;;;;24.92;52.02;100754.26;124962;1099;101895;-80
2022/08/10 09:08:51;;;;;;;4.93;2.60;;;;;;;24.94;51.89;100761.34;125686;1099;104277;-80
2022/08/10 09:11:57;;;;;;;7.40;3.27;;;;;;;24.83;50.27;100771.41;125106;1099;104206;-81
2022/08/10 09:14:37;;;;;;;6.90;2.80;;;;;;;24.82;50.87;100752.66;125168;1099;104207;-78
2022/08/10 09:17:40;;;;;;;5.27;3.17;;;;;;;24.74;49.51;100755.48;124565;1099;104204;-79
2022/08/10 09:20:37;;;;;;;;;;;;;;;;;;;;;
2022/08/10 09:23:39;;;;;;;3.93;2.90;;;;;;;24.85;50.71;100747.23;126082;1098;110601;-81
2022/08/10 09:26:34;;;;;;;5.77;2.67;;;;;;;24.93;50.88;100754.22;125748;1099;104166;-81
2022/08/10 09:29:44;;;;;;;;;;;;;;;;;;;;;
2022/08/10 09:32:41;;;;;;;3.67;2.50;;;;;;;25.01;50.02;100751.39;125060;1099;104469;-80
2022/08/10 09:35:37;;;;;;;6.47;2.65;;;;;;;25.04;49.92;100737.91;125654;1099;104290;-77
2022/08/10 09:38:27;;;;;;;7.83;2.90;;;;;;;25.08;49.72;100747.64;125721;1099;104169;-78
2022/08/10 09:41:15;;;;;;;8.40;3.20;;;;;;;25.08;50.14;100750.33;126575;1098;104245;-78
2022/08/10 09:44:14;;;;;;;7.33;3.00;;;;;;;25.06;48.51;100743.24;125715;1099;119928;-79
2022/08/10 09:47:21;;;;;;;7.03;2.77;;;;;;;24.97;48.80;100754.16;125681;1099;104169;-78
2022/08/10 09:50:16;;;;;;;4.33;2.87;;;;;;;24.89;49.50;100754.31;125357;1098;104236;-79
2022/08/10 09:53:05;;;;;;;3.95;2.92;;;;;;;25.00;50.02;100741.56;125625;1099;104261;-79
2022/08/10 09:58:52;;;;;;;6.43;2.83;;;;;;;25.05;48.61;100747.70;125257;1099;104185;-79
2022/08/10 10:01:39;;;;;;;4.23;2.80;;;;;;;25.11;49.75;100750.27;125757;1099;104179;-79
2022/08/10 10:04:30;;;;;;;6.60;2.87;;;;;;;25.11;49.29;100744.02;125648;1099;104172;-78
2022/08/10 10:07:10;;;;;;;6.97;3.00;;;;;;;25.15;49.35;100744.84;124966;1099;104195;-79
2022/08/10 10:09:59;;;;;;;6.70;3.10;;;;;;;25.31;49.72;100732.90;124915;1099;102219;-79
2022/08/10 10:12:57;;;;;;;6.00;3.07;;;;;;;25.46;49.16;100737.94;125784;1099;102499;-78
2022/08/10 10:15:49;;;;;;;6.53;3.17;;;;;;;25.41;49.25;100729.07;125739;1099;104708;-79
2022/08/10 10:18:45;;;;;;;4.73;2.87;;;;;;;25.47;49.09;100741.50;125819;1099;102774;-78
2022/08/10 10:21:32;;;;;;;9.80;3.00;;;;;;;25.62;48.47;100740.28;125692;1099;104169;-78
2022/08/10 10:24:14;;;;;;;7.57;2.73;;;;;;;25.68;48.55;100734.77;125676;1099;104156;-79
2022/08/10 10:26:56;;;;;;;4.93;3.00;;;;;;;25.78;47.61;100733.61;125738;1099;102349;-79
2022/08/10 10:29:46;;;;;;;6.57;3.00;;;;;;;25.87;47.99;100734.30;125216;1099;104176;-78
2022/08/10 10:32:33;;;;;;;10.23;3.30;;;;;;;25.93;47.62;100745.81;124977;1099;103371;-79
2022/08/10 10:35:22;;;;;;;4.83;2.97;;;;;;;25.99;47.03;100745.70;125765;1099;110593;-78
2022/08/10 10:38:00;;;;;;;3.93;2.60;;;;;;;25.92;47.23;100732.41;125722;1099;104250;-78
2022/08/10 10:40:49;;;;;;;3.33;2.57;;;;;;;26.00;47.75;100725.06;125741;1099;104249;-79
2022/08/10 10:43:53;;;;;;;6.70;3.00;;;;;;;26.06;47.33;100735.67;125805;1099;102120;-78
2022/08/10 10:46:45;;;;;;;4.33;2.80;;;;;;;26.08;47.00;100736.50;125823;1099;104283;-79
2022/08/10 10:49:44;;;;;;;5.27;2.80;;;;;;;25.95;47.38;100727.83;126152;1099;104265;-81
2022/08/10 10:52:31;;;;;;;8.40;3.10;;;;;;;26.01;47.29;100721.47;125762;1099;104318;-81
2022/08/10 10:55:21;;;;;;;4.27;3.00;;;;;;;25.96;47.05;100726.02;125826;1099;102304;-81
2022/08/10 10:58:08;;;;;;;4.00;2.80;;;;;;;25.97;47.29;100733.17;125756;1099;104242;-78
2022/08/10 11:00:56;;;;;;;3.55;2.70;;;;;;;25.92;46.62;100727.91;125079;1102;104185;-79
2022/08/10 11:03:49;;;;;;;4.30;2.73;;;;;;;25.87;47.20;100713.70;125087;1102;102448;-78
2022/08/10 11:06:45;;;;;;;4.07;2.43;;;;;;;25.76;46.34;100730.09;125041;1102;104229;-80
2022/08/10 11:09:29;;;;;;;5.40;2.73;;;;;;;25.68;47.10;100720.42;125042;1102;104294;-77
2022/08/10 11:12:20;;;;;;;4.47;2.70;;;;;;;25.66;46.27;100728.52;124991;1102;102878;-80
2022/08/10 11:14:58;;;;;;;4.83;2.70;;;;;;;25.61;46.35;100725.06;125034;1102;104188;-78
2022/08/10 11:17:51;;;;;;;4.23;2.50;;;;;;;25.58;46.28;100722.45;124996;1102;104057;-80
2022/08/10 11:20:32;;;;;;;5.00;2.60;;;;;;;25.53;46.08;100721.68;125200;1102;104245;-80
2022/08/10 11:23:31;;;;;;;6.80;2.77;;;;;;;25.55;46.36;100712.65;125054;1102;102931;-79
2022/08/10 11:26:17;;;;;;;6.70;3.00;;;;;;;25.54;46.06;100716.27;125063;1102;101927;-79
2022/08/10 11:29:03;;;;;;;6.63;2.77;;;;;;;25.52;46.10;100726.15;125200;1102;104204;-80
2022/08/10 11:32:04;;;;;;;9.87;2.80;;;;;;;25.65;46.43;100719.59;125841;1102;102310;-81
2022/08/10 11:35:00;;;;;;;7.00;2.60;;;;;;;25.62;45.40;100716.97;125896;1099;102147;-82
2022/08/10 11:37:46;;;;;;;8.20;2.90;;;;;;;25.49;44.20;100707.41;125798;1099;104393;-79
2022/08/10 11:40:27;;;;;;;8.70;2.70;;;;;;;25.47;45.35;100707.45;125652;1099;104095;-79
2022/08/10 11:43:21;;;;;;;7.25;2.77;;;;;;;25.41;44.86;100714.77;127028;1098;101702;-81
2022/08/10 11:46:39;;;;;;;5.17;2.43;;;;;;;25.32;44.67;100699.73;125717;1098;104127;-79
2022/08/10 11:49:46;;;;;;;4.97;2.70;;;;;;;25.35;44.94;100702.35;125886;1099;102791;-80
2022/08/10 11:52:32;;;;;;;7.03;2.40;;;;;;;25.42;44.77;100711.17;125853;1099;104671;-80
2022/08/10 11:55:17;;;;;;;6.03;2.83;;;;;;;25.45;44.72;100698.55;127090;1097;103190;-81
2022/08/10 11:58:00;;;;;;;6.13;2.47;;;;;;;25.41;44.68;100709.40;126595;1098;101789;-80
2022/08/10 12:00:38;;;;;;;7.83;2.90;;;;;;;25.43;44.98;100711.14;125699;1099;104348;-80
2022/08/10 12:03:31;;;;;;;6.37;3.00;;;;;;;25.42;44.66;100706.67;125781;1099;104150;-81
2022/08/10 12:06:31;;;;;;;6.87;2.37;;;;;;;25.43;44.70;100704.86;125975;1099;102649;-78
2022/08/10 12:09:19;;;;;;;5.03;2.17;;;;;;;25.47;45.35;100704.77;125248;1099;103206;-79
2022/08/10 12:11:58;;;;;;;8.77;2.80;;;;;;;25.47;44.61;100710.13;126046;1099;104172;-79
2022/08/10 12:14:53;;;;;;;3.87;2.50;;;;;;;25.51;44.97;100707.38;125255;1099;104172;-80
2022/08/10 12:17:49;;;;;;;4.50;2.30;;;;;;;25.52;44.89;100707.34;125783;1099;104277;-81
2022/08/10 12:20:43;;;;;;;6.73;2.70;;;;;;;25.59;44.56;100708.11;126591;1098;101976;-83
2022/08/10 12:23:42;;;;;;;6.33;2.42;;;;;;;25.62;44.20;100708.91;126403;1099;103219;-80
2022/08/10 12:27:19;;;;;;;7.93;2.90;;;;;;;25.60;44.77;100702.70;125792;1099;102185;-81
2022/08/10 12:34:46;;;;;;;4.80;2.37;;;;;;;25.55;43.77;100714.46;126125;1098;101866;-82